Time;durP1;ratioP1;P1;durP2;ratioP2;P2;SDS_P1;SDS_P2;PMS_P1;PMS_P2;Temp;Humidity;BMP_temperature;BMP_pressure;BME280_temperature;BME280_humidity;BME280_pressure;Samples;Min_cycle;Max_cycle;Signal;HPM_P1;HPM_P2
2021/01/17 00:01:11;;;;;;;10.10;7.13;;;-3.00;64.90;;;;;;6125317;23;20175;-73
2021/01/17 00:03:37;;;;;;;13.82;7.90;;;-3.00;64.70;;;;;;6125606;23;20173;-74
2021/01/17 00:06:05;;;;;;;15.63;9.07;;;-2.90;64.70;;;;;;6125589;23;20185;-73
2021/01/17 00:08:31;;;;;;;18.08;9.55;;;-2.90;64.00;;;;;;6125111;23;20173;-73
2021/01/17 00:10:58;;;;;;;12.07;9.18;;;-2.90;64.10;;;;;;6124940;23;20196;-75
2021/01/17 00:13:32;;;;;;;14.55;9.80;;;-2.90;63.70;;;;;;6125402;23;20168;-73
2021/01/17 00:15:58;;;;;;;13.35;8.45;;;-2.90;63.90;;;;;;6125725;23;20203;-74
2021/01/17 00:18:25;;;;;;;18.00;10.20;;;-2.90;64.20;;;;;;6125381;23;20623;-77
2021/01/17 00:20:51;;;;;;;19.77;11.20;;;-2.90;64.00;;;;;;6125311;23;20179;-73
2021/01/17 00:23:21;;;;;;;51.28;25.75;;;-2.90;63.50;;;;;;6124833;23;20168;-74
2021/01/17 00:25:47;;;;;;;46.50;27.15;;;-2.90;63.50;;;;;;6125170;23;20686;-73
2021/01/17 00:28:14;;;;;;;34.47;21.30;;;-2.90;63.90;;;;;;6125227;23;20172;-73
2021/01/17 00:30:40;;;;;;;26.88;15.48;;;-2.90;63.90;;;;;;6125487;23;20192;-73
2021/01/17 00:33:07;;;;;;;21.65;13.30;;;-2.80;63.30;;;;;;6125832;23;20179;-74
2021/01/17 00:35:34;;;;;;;21.98;11.30;;;-2.90;63.20;;;;;;6125638;23;20199;-73
2021/01/17 00:38:02;;;;;;;22.13;11.15;;;-2.80;63.40;;;;;;6126123;23;20171;-73
2021/01/17 00:40:30;;;;;;;19.90;11.73;;;-2.90;63.50;;;;;;6125125;23;20172;-74
2021/01/17 00:42:56;;;;;;;18.45;10.30;;;-2.90;63.80;;;;;;6125919;23;20206;-73
2021/01/17 00:45:26;;;;;;;16.10;11.23;;;-2.90;64.00;;;;;;6126227;23;20482;-73
2021/01/17 00:47:52;;;;;;;16.50;9.35;;;-3.00;62.90;;;;;;6124952;23;20631;-73
2021/01/17 00:50:20;;;;;;;20.33;12.23;;;-3.00;63.20;;;;;;6125437;23;20271;-73
2021/01/17 00:52:51;;;;;;;23.02;14.65;;;-3.00;63.30;;;;;;6125588;23;20172;-76
2021/01/17 00:55:18;;;;;;;20.23;13.38;;;-2.90;63.50;;;;;;6125863;23;20192;-73
2021/01/17 00:57:45;;;;;;;21.83;15.63;;;-2.90;63.70;;;;;;6126082;23;20153;-73
2021/01/17 01:00:14;;;;;;;23.15;13.50;;;-2.90;64.20;;;;;;6125556;23;20177;-74
2021/01/17 01:02:41;;;;;;;17.30;10.88;;;-2.80;64.30;;;;;;6125659;23;20168;-74
2021/01/17 01:05:09;;;;;;;18.67;11.23;;;-2.80;64.50;;;;;;6125856;23;20635;-73
2021/01/17 01:07:36;;;;;;;14.98;10.43;;;-2.70;64.50;;;;;;6124920;23;20168;-73
2021/01/17 01:10:06;;;;;;;14.68;9.45;;;-2.70;64.30;;;;;;6125743;23;20192;-73
2021/01/17 01:12:33;;;;;;;17.17;9.75;;;-2.70;64.50;;;;;;6125770;23;20153;-73
2021/01/17 01:15:00;;;;;;;16.23;9.20;;;-2.60;64.10;;;;;;6125322;23;20164;-73
2021/01/17 01:17:27;;;;;;;15.75;9.18;;;-2.60;64.40;;;;;;6126042;23;20169;-73
2021/01/17 01:19:54;;;;;;;15.35;9.55;;;-2.60;64.30;;;;;;6125239;23;20620;-73
2021/01/17 01:22:20;;;;;;;15.80;8.50;;;-2.60;64.50;;;;;;6125926;23;20161;-73
2021/01/17 01:24:47;;;;;;;16.25;8.55;;;-2.60;63.40;;;;;;6125381;23;20581;-75
2021/01/17 01:27:14;;;;;;;14.18;6.93;;;-2.50;64.30;;;;;;6122992;23;20175;-73
2021/01/17 01:29:40;;;;;;;11.20;7.75;;;-2.50;63.70;;;;;;6125897;23;20164;-73
2021/01/17 01:32:08;;;;;;;8.52;5.30;;;-2.50;63.60;;;;;;6125634;23;20496;-73
2021/01/17 01:34:35;;;;;;;6.80;5.00;;;-2.50;63.90;;;;;;6125340;23;20632;-73
2021/01/17 01:37:02;;;;;;;9.95;5.00;;;-2.50;63.70;;;;;;6125484;23;20168;-73
2021/01/17 01:39:28;;;;;;;9.05;5.85;;;-2.50;63.80;;;;;;6125470;23;20164;-73
2021/01/17 01:41:54;;;;;;;9.52;5.47;;;-2.60;64.60;;;;;;6125297;23;20175;-73
2021/01/17 01:44:21;;;;;;;7.70;4.18;;;-2.50;64.80;;;;;;6125384;23;20169;-73
2021/01/17 01:46:55;;;;;;;6.78;3.95;;;-2.50;65.20;;;;;;6125569;23;20169;-74
2021/01/17 01:49:22;;;;;;;8.25;5.18;;;-2.50;65.50;;;;;;6125090;23;20588;-73
2021/01/17 01:51:49;;;;;;;10.45;4.57;;;-2.50;66.10;;;;;;6125400;23;20204;-73
2021/01/17 01:54:16;;;;;;;5.85;4.25;;;-2.40;65.50;;;;;;6125680;23;20191;-74
2021/01/17 01:56:43;;;;;;;5.97;3.80;;;-2.50;66.80;;;;;;6125256;23;20224;-73
2021/01/17 01:59:09;;;;;;;5.60;3.75;;;-2.50;66.90;;;;;;6125061;23;20195;-73
2021/01/17 02:01:35;;;;;;;10.00;4.97;;;-2.50;67.10;;;;;;6125864;23;20248;-73
2021/01/17 02:04:02;;;;;;;8.38;4.18;;;-2.50;68.20;;;;;;6125110;23;20168;-73
2021/01/17 02:06:29;;;;;;;6.18;3.90;;;-2.40;68.10;;;;;;6125414;23;20172;-73
2021/01/17 02:09:14;;;;;;;6.18;3.70;;;-2.50;68.60;;;;;;6125035;23;20197;-73
2021/01/17 02:11:50;;;;;;;5.82;3.60;;;-2.60;68.70;;;;;;6125302;23;20184;-73
2021/01/17 02:14:25;;;;;;;7.10;4.38;;;-2.50;69.20;;;;;;6125540;23;20160;-73
2021/01/17 02:16:55;;;;;;;7.32;3.85;;;-2.60;69.20;;;;;;6125962;23;20153;-73
2021/01/17 02:19:28;;;;;;;7.57;4.85;;;-2.60;69.10;;;;;;6125241;23;20204;-73
2021/01/17 02:21:58;;;;;;;7.53;4.10;;;-2.50;68.60;;;;;;6127379;23;20153;-73
2021/01/17 02:24:32;;;;;;;5.55;3.10;;;-2.40;68.90;;;;;;6126975;23;20621;-73
2021/01/17 02:27:01;;;;;;;6.32;3.40;;;-2.40;68.60;;;;;;6126602;23;20168;-73
2021/01/17 02:29:28;;;;;;;4.95;3.05;;;-2.40;69.20;;;;;;6127504;23;20165;-73
2021/01/17 02:31:59;;;;;;;7.80;4.40;;;-2.40;69.20;;;;;;6126720;23;20199;-73
2021/01/17 02:34:27;;;;;;;5.50;3.20;;;-2.40;69.50;;;;;;6127454;23;20152;-73
2021/01/17 02:37:04;;;;;;;6.88;4.07;;;-2.40;69.60;;;;;;6126512;23;20171;-74
2021/01/17 02:39:39;;;;;;;6.72;3.55;;;-2.40;71.10;;;;;;6127399;23;20190;-78
2021/01/17 02:42:07;;;;;;;9.60;4.65;;;-2.40;70.60;;;;;;6127145;23;20235;-73
2021/01/17 02:44:34;;;;;;;5.03;3.25;;;-2.40;70.60;;;;;;6127274;23;20243;-75
2021/01/17 02:47:02;;;;;;;7.72;3.70;;;-2.40;70.70;;;;;;6126938;23;20169;-73
2021/01/17 02:49:30;;;;;;;5.35;3.22;;;-2.30;71.40;;;;;;6126789;23;20176;-73
2021/01/17 02:51:58;;;;;;;6.88;4.15;;;-2.30;71.10;;;;;;6126844;23;20199;-73
2021/01/17 02:54:31;;;;;;;7.38;4.45;;;-2.30;70.90;;;;;;6127087;23;20168;-73
2021/01/17 02:57:02;;;;;;;6.93;3.58;;;-2.30;71.50;;;;;;6126599;23;20282;-73
2021/01/17 02:59:34;;;;;;;5.85;2.78;;;-2.30;71.50;;;;;;6126802;23;20161;-73
2021/01/17 03:02:03;;;;;;;7.93;4.05;;;-2.20;71.70;;;;;;6126820;23;20608;-76
2021/01/17 03:04:34;;;;;;;7.45;4.15;;;-2.30;71.20;;;;;;6126245;23;20267;-73
2021/01/17 03:07:06;;;;;;;7.05;3.90;;;-2.30;72.00;;;;;;6127158;23;20153;-73
2021/01/17 03:09:34;;;;;;;4.35;2.92;;;-2.40;72.60;;;;;;6126702;23;20235;-74
2021/01/17 03:12:03;;;;;;;7.38;3.88;;;-2.40;72.70;;;;;;6126715;23;20192;-73
2021/01/17 03:14:32;;;;;;;6.93;3.70;;;-2.40;73.10;;;;;;6126593;23;20535;-74
2021/01/17 03:16:58;;;;;;;5.43;3.13;;;-2.30;73.00;;;;;;6126562;23;20192;-73
2021/01/17 03:19:24;;;;;;;4.75;3.10;;;-2.30;73.00;;;;;;6126869;23;20563;-73
2021/01/17 03:21:51;;;;;;;4.85;3.00;;;-2.20;73.60;;;;;;6126771;23;20204;-74
2021/01/17 03:24:18;;;;;;;5.80;3.22;;;-2.20;73.50;;;;;;6125771;23;20172;-74
2021/01/17 03:26:44;;;;;;;7.60;4.30;;;-2.10;73.60;;;;;;6126729;23;20270;-74
2021/01/17 03:29:11;;;;;;;6.25;3.80;;;-2.00;73.90;;;;;;6126506;23;20173;-74
2021/01/17 03:31:38;;;;;;;7.15;3.85;;;-2.00;74.10;;;;;;6126237;23;20230;-73
2021/01/17 03:34:05;;;;;;;6.35;3.50;;;-1.90;74.20;;;;;;6126465;23;20169;-78
2021/01/17 03:36:31;;;;;;;6.45;3.67;;;-1.90;74.10;;;;;;6126319;23;20204;-73
2021/01/17 03:38:58;;;;;;;5.18;2.78;;;-1.90;74.30;;;;;;6126785;23;20168;-75
2021/01/17 03:41:25;;;;;;;5.80;2.70;;;-1.80;74.30;;;;;;6126230;23;20168;-73
2021/01/17 03:43:51;;;;;;;4.28;3.20;;;-1.80;73.70;;;;;;6126466;23;20165;-74
2021/01/17 03:46:18;;;;;;;5.78;2.92;;;-1.80;73.50;;;;;;6126437;23;20173;-73
2021/01/17 03:48:45;;;;;;;4.32;3.20;;;-1.90;73.80;;;;;;6126399;23;20169;-73
2021/01/17 03:51:12;;;;;;;6.47;3.10;;;-1.90;74.50;;;;;;6126780;23;20200;-73
2021/01/17 03:53:38;;;;;;;5.22;3.13;;;-1.90;74.80;;;;;;6126207;23;20174;-73
2021/01/17 03:56:05;;;;;;;6.32;3.20;;;-1.80;75.40;;;;;;6125946;23;20199;-74
2021/01/17 03:58:33;;;;;;;5.05;2.92;;;-1.70;75.00;;;;;;6126233;23;20187;-74
2021/01/17 04:00:59;;;;;;;6.55;3.05;;;-1.70;75.20;;;;;;6126237;23;20499;-73
2021/01/17 04:03:26;;;;;;;4.68;2.83;;;-1.70;74.30;;;;;;6126512;23;20231;-73
2021/01/17 04:05:53;;;;;;;4.07;2.50;;;-1.70;73.90;;;;;;6126074;23;20168;-73
2021/01/17 04:08:20;;;;;;;6.32;3.17;;;-1.60;74.10;;;;;;6126536;23;20168;-73
2021/01/17 04:10:48;;;;;;;6.25;3.22;;;-1.50;74.40;;;;;;6126135;23;20192;-73
2021/01/17 04:13:14;;;;;;;5.47;2.88;;;-1.50;74.20;;;;;;6126546;23;20175;-73
2021/01/17 04:15:41;;;;;;;4.88;2.60;;;-1.40;74.10;;;;;;6126516;23;20690;-73
2021/01/17 04:18:09;;;;;;;5.25;2.70;;;-1.40;74.10;;;;;;6126820;23;20191;-74
2021/01/17 04:20:35;;;;;;;7.30;3.88;;;-1.30;74.20;;;;;;6126787;23;20187;-73
2021/01/17 04:23:04;;;;;;;8.27;3.85;;;-1.30;74.10;;;;;;6126496;23;20223;-74
2021/01/17 04:25:30;;;;;;;5.50;2.95;;;-1.20;74.20;;;;;;6126200;23;20639;-73
2021/01/17 04:27:58;;;;;;;4.35;3.25;;;-1.20;73.70;;;;;;6126661;23;20168;-73
2021/01/17 04:30:30;;;;;;;6.20;2.92;;;-1.20;73.40;;;;;;6126332;23;20516;-73
2021/01/17 04:32:56;;;;;;;4.43;3.08;;;-1.20;73.00;;;;;;6126591;23;20244;-73
2021/01/17 04:35:23;;;;;;;4.75;3.28;;;-1.10;73.00;;;;;;6126639;23;20216;-73
2021/01/17 04:37:49;;;;;;;5.18;3.40;;;-1.10;73.00;;;;;;6126315;23;20631;-73
2021/01/17 04:40:17;;;;;;;4.35;2.80;;;-1.10;73.00;;;;;;6125776;23;20219;-73
2021/01/17 04:42:49;;;;;;;5.57;2.83;;;-1.10;73.40;;;;;;6126259;23;20172;-74
2021/01/17 04:45:17;;;;;;;6.95;2.90;;;-1.10;73.70;;;;;;6126612;23;20156;-73
2021/01/17 04:47:47;;;;;;;4.40;2.45;;;-1.10;73.50;;;;;;6126577;23;20164;-73
2021/01/17 04:50:16;;;;;;;4.13;2.83;;;-1.10;73.40;;;;;;6126200;23;20188;-73
2021/01/17 04:52:52;;;;;;;6.18;2.85;;;-1.20;73.20;;;;;;6126716;23;20531;-73
2021/01/17 04:55:24;;;;;;;4.05;2.28;;;-1.20;74.30;;;;;;6125620;23;20655;-73
2021/01/17 04:57:57;;;;;;;5.38;2.92;;;-1.20;73.70;;;;;;6126540;23;20164;-73
2021/01/17 05:00:28;;;;;;;5.32;3.15;;;-1.20;74.10;;;;;;6125711;23;20156;-73
2021/01/17 05:03:19;;;;;;;6.90;3.10;;;-1.30;74.20;;;;;;6126073;23;20157;-73
2021/01/17 05:05:53;;;;;;;5.75;3.03;;;-1.30;74.70;;;;;;6125797;23;20300;-75
2021/01/17 05:08:34;;;;;;;5.45;3.35;;;-1.40;75.20;;;;;;6126191;23;20231;-73
2021/01/17 05:11:03;;;;;;;4.75;2.40;;;-1.40;74.70;;;;;;6125436;23;20232;-73
2021/01/17 05:13:35;;;;;;;5.70;2.83;;;-1.40;75.10;;;;;;6126133;23;20615;-73
2021/01/17 05:16:07;;;;;;;6.22;3.22;;;-1.40;75.20;;;;;;6126271;23;20172;-73
2021/01/17 05:18:33;;;;;;;3.72;2.30;;;-1.30;75.60;;;;;;6126138;23;20622;-73
2021/01/17 05:21:01;;;;;;;5.18;3.28;;;-1.30;75.50;;;;;;6125800;23;20524;-73
2021/01/17 05:23:35;;;;;;;4.85;2.85;;;-1.30;75.90;;;;;;6126317;23;20168;-73
2021/01/17 05:26:05;;;;;;;10.23;3.03;;;-1.40;75.00;;;;;;6126016;23;20160;-73
2021/01/17 05:28:33;;;;;;;4.55;2.47;;;-1.50;75.60;;;;;;6125982;23;20224;-73
2021/01/17 05:31:00;;;;;;;5.65;3.17;;;-1.50;76.60;;;;;;6126259;23;20219;-73
2021/01/17 05:33:30;;;;;;;4.85;2.78;;;-1.50;77.10;;;;;;6125859;23;20517;-73
2021/01/17 05:35:59;;;;;;;5.15;3.20;;;-1.50;76.20;;;;;;6126458;23;20153;-73
2021/01/17 05:38:26;;;;;;;3.50;2.08;;;-1.50;75.80;;;;;;6125760;23;20196;-73
2021/01/17 05:40:53;;;;;;;4.95;2.75;;;-1.50;76.50;;;;;;6126179;23;20169;-72
2021/01/17 05:43:20;;;;;;;2.88;2.35;;;-1.50;76.60;;;;;;6126087;23;20492;-73
2021/01/17 05:45:47;;;;;;;4.28;2.60;;;-1.60;77.30;;;;;;6126396;23;20165;-73
2021/01/17 05:48:14;;;;;;;4.10;2.53;;;-1.50;77.00;;;;;;6126109;23;20176;-73
2021/01/17 05:50:44;;;;;;;4.47;2.65;;;-1.50;77.20;;;;;;6125932;23;20251;-73
2021/01/17 05:53:10;;;;;;;5.05;3.08;;;-1.50;77.70;;;;;;6125931;23;20211;-73
2021/01/17 05:55:38;;;;;;;4.70;2.50;;;-1.40;77.90;;;;;;6126276;23;20224;-73
2021/01/17 05:58:22;;;;;;;4.22;2.80;;;-1.40;78.10;;;;;;6128271;23;20169;-73
2021/01/17 06:00:49;;;;;;;4.50;2.00;;;-1.30;78.30;;;;;;6127692;23;20564;-73
2021/01/17 06:03:26;;;;;;;3.92;1.88;;;-1.30;78.60;;;;;;6128203;23;20179;-73
2021/01/17 06:05:59;;;;;;;3.70;2.85;;;-1.20;78.80;;;;;;6127549;23;20279;-73
2021/01/17 06:08:26;;;;;;;3.42;2.00;;;-1.20;79.00;;;;;;6127697;23;20163;-73
2021/01/17 06:10:54;;;;;;;4.65;3.35;;;-1.10;79.20;;;;;;6127228;23;20681;-73
2021/01/17 06:13:23;;;;;;;4.40;2.53;;;-1.10;79.20;;;;;;6128016;23;20196;-73
2021/01/17 06:15:50;;;;;;;4.13;2.30;;;-1.00;79.30;;;;;;6127158;23;20168;-74
2021/01/17 06:18:21;;;;;;;4.85;2.83;;;-0.90;79.40;;;;;;6127399;23;20620;-73
2021/01/17 06:20:55;;;;;;;4.25;2.60;;;-0.80;79.20;;;;;;6127158;23;20219;-73
2021/01/17 06:23:22;;;;;;;4.70;2.70;;;-0.80;78.70;;;;;;6127941;23;20542;-73
2021/01/17 06:26:02;;;;;;;4.68;2.58;;;-0.70;78.50;;;;;;6127515;23;20180;-73
2021/01/17 06:28:39;;;;;;;4.78;2.70;;;-0.70;78.80;;;;;;6126828;23;20161;-73
2021/01/17 06:31:06;;;;;;;4.88;2.72;;;-0.60;79.00;;;;;;6127902;23;20621;-73
2021/01/17 06:33:33;;;;;;;3.15;2.47;;;-0.50;78.60;;;;;;6127722;23;20169;-73
2021/01/17 06:36:11;;;;;;;4.93;2.92;;;-0.50;78.10;;;;;;6128214;23;20169;-73
2021/01/17 06:38:38;;;;;;;4.45;2.85;;;-0.50;78.30;;;;;;6127186;23;20156;-75
2021/01/17 06:41:04;;;;;;;4.95;2.80;;;-0.40;78.30;;;;;;6127750;23;20169;-73
2021/01/17 06:43:31;;;;;;;4.15;2.78;;;-0.40;78.10;;;;;;6127512;23;20191;-74
2021/01/17 06:45:59;;;;;;;4.63;2.45;;;-0.40;78.30;;;;;;6127615;23;20171;-73
2021/01/17 06:48:27;;;;;;;4.95;2.95;;;-0.40;78.50;;;;;;6126904;23;20168;-73
2021/01/17 06:50:54;;;;;;;4.95;2.80;;;-0.30;78.40;;;;;;6127506;23;20223;-75
2021/01/17 06:53:25;;;;;;;5.10;3.00;;;-0.30;78.60;;;;;;6127099;23;20168;-73
2021/01/17 06:56:08;;;;;;;4.35;2.50;;;-0.30;78.70;;;;;;6126825;23;20192;-73
2021/01/17 06:58:38;;;;;;;5.60;3.42;;;-0.30;78.90;;;;;;6127131;23;20157;-73
2021/01/17 07:01:06;;;;;;;4.35;3.60;;;-0.30;78.70;;;;;;6127479;23;20513;-73
2021/01/17 07:03:42;;;;;;;3.72;2.55;;;-0.20;79.00;;;;;;6127450;23;20175;-73
2021/01/17 07:06:26;;;;;;;3.15;2.50;;;-0.20;79.10;;;;;;6127581;23;20523;-73
2021/01/17 07:08:59;;;;;;;9.27;3.97;;;-0.10;79.10;;;;;;6126907;23;20160;-73
2021/01/17 07:11:49;;;;;;;5.97;3.85;;;-0.10;78.70;;;;;;6123971;23;20687;-73
2021/01/17 07:14:17;;;;;;;8.43;4.05;;;-0.10;78.90;;;;;;6126430;23;20153;-73
2021/01/17 07:16:48;;;;;;;10.32;6.47;;;0.00;79.40;;;;;;6124931;23;20687;-74
2021/01/17 07:19:20;;;;;;;10.60;7.28;;;0.00;79.50;;;;;;6126455;23;20219;-73
2021/01/17 07:21:50;;;;;;;11.95;7.72;;;0.00;79.80;;;;;;6126787;23;20235;-73
2021/01/17 07:24:20;;;;;;;12.95;7.32;;;0.10;79.80;;;;;;6126840;23;20175;-73
2021/01/17 07:27:10;;;;;;;13.85;8.07;;;0.10;79.80;;;;;;6126910;23;20235;-72
2021/01/17 07:29:37;;;;;;;10.70;8.05;;;0.20;79.70;;;;;;6108696;23;20165;-72
2021/01/17 07:32:29;;;;;;;10.30;6.13;;;0.30;79.60;;;;;;6127175;23;20196;-72
2021/01/17 07:35:07;;;;;;;6.78;4.90;;;0.30;79.60;;;;;;6126324;23;20157;-72
2021/01/17 07:37:34;;;;;;;8.45;4.60;;;0.40;79.80;;;;;;6126744;23;20157;-71
2021/01/17 07:40:08;;;;;;;9.30;4.47;;;0.40;79.70;;;;;;6126486;23;20650;-72
2021/01/17 07:42:36;;;;;;;5.63;4.10;;;0.40;79.20;;;;;;6126624;23;20157;-72
2021/01/17 07:45:17;;;;;;;5.40;3.45;;;0.40;79.30;;;;;;6127235;23;20168;-72
2021/01/17 07:47:46;;;;;;;4.55;3.13;;;0.50;79.20;;;;;;6127071;23;20161;-72
2021/01/17 07:50:13;;;;;;;5.47;3.65;;;0.50;78.80;;;;;;6127159;23;20540;-72
2021/01/17 07:52:45;;;;;;;6.57;3.67;;;0.50;78.60;;;;;;6126326;23;20628;-71
2021/01/17 07:55:13;;;;;;;5.28;3.55;;;0.60;78.70;;;;;;6126171;23;20194;-71
2021/01/17 07:57:45;;;;;;;4.95;3.55;;;0.60;78.30;;;;;;6126912;23;20215;-72
2021/01/17 08:00:14;;;;;;;5.82;3.95;;;0.70;78.40;;;;;;6126779;23;20244;-76
2021/01/17 08:02:41;;;;;;;5.15;3.47;;;0.70;78.40;;;;;;6126593;23;20224;-71
2021/01/17 08:05:09;;;;;;;5.00;3.30;;;0.80;78.00;;;;;;6126510;23;20203;-72
2021/01/17 08:07:36;;;;;;;6.22;3.70;;;0.80;78.20;;;;;;6126291;23;20204;-72
2021/01/17 08:10:03;;;;;;;6.70;4.40;;;0.90;78.30;;;;;;6126164;23;20165;-72
2021/01/17 08:12:34;;;;;;;5.63;4.03;;;0.90;78.30;;;;;;6126991;23;20164;-72
2021/01/17 08:15:22;;;;;;;4.05;3.22;;;1.00;78.60;;;;;;6126163;23;20168;-72
2021/01/17 08:17:50;;;;;;;6.05;4.00;;;1.10;78.90;;;;;;6126693;23;20153;-72
2021/01/17 08:20:29;;;;;;;5.60;4.03;;;1.10;78.40;;;;;;6126045;23;20172;-72
2021/01/17 08:23:09;;;;;;;5.65;3.90;;;1.10;78.80;;;;;;6126872;23;20163;-72
2021/01/17 08:25:56;;;;;;;6.25;4.15;;;1.20;78.90;;;;;;6126203;23;20165;-72
2021/01/17 08:28:32;;;;;;;5.47;4.18;;;1.20;78.60;;;;;;6126289;23;20164;-72
2021/01/17 08:30:59;;;;;;;5.65;4.40;;;1.30;78.50;;;;;;6125802;23;20247;-72
2021/01/17 08:33:30;;;;;;;4.70;3.97;;;1.40;78.10;;;;;;6116845;23;20547;-76
2021/01/17 08:35:57;;;;;;;6.50;3.60;;;1.40;77.40;;;;;;6114939;23;20479;-72
2021/01/17 08:41:32;;;;;;;6.45;4.03;;;1.40;77.90;;;;;;6102136;23;20620;-71
2021/01/17 08:44:15;;;;;;;7.82;4.70;;;1.50;78.00;;;;;;6120997;23;20157;-72
2021/01/17 08:46:48;;;;;;;7.88;5.63;;;1.60;77.50;;;;;;6124354;23;20178;-73
2021/01/17 08:49:37;;;;;;;9.63;6.43;;;1.60;77.10;;;;;;6123502;23;20164;-72
2021/01/17 08:52:08;;;;;;;17.20;10.13;;;1.60;77.10;;;;;;6119157;23;20181;-73
2021/01/17 08:54:50;;;;;;;13.65;8.98;;;1.60;77.80;;;;;;6114479;23;20175;-72
2021/01/17 08:57:39;;;;;;;10.77;8.10;;;1.60;78.60;;;;;;6124107;23;20466;-73
2021/01/17 09:00:10;;;;;;;10.27;6.68;;;1.70;78.60;;;;;;6124171;23;20172;-72
2021/01/17 09:02:37;;;;;;;12.73;7.25;;;1.80;78.60;;;;;;6125727;23;20160;-72
2021/01/17 09:05:08;;;;;;;11.25;7.07;;;1.80;78.20;;;;;;6125533;23;20508;-72
2021/01/17 09:07:36;;;;;;;10.57;6.78;;;1.90;78.10;;;;;;6125363;23;20161;-73
2021/01/17 09:10:06;;;;;;;11.45;7.93;;;2.00;78.40;;;;;;6124884;23;20612;-72
2021/01/17 09:12:35;;;;;;;13.75;9.95;;;2.10;78.30;;;;;;6126608;23;20188;-72
2021/01/17 09:15:16;;;;;;;13.07;8.82;;;2.10;78.60;;;;;;6126220;23;20169;-71
2021/01/17 09:17:43;;;;;;;10.10;6.82;;;2.20;79.50;;;;;;6126179;23;20666;-72
2021/01/17 09:20:21;;;;;;;12.52;8.05;;;2.30;79.70;;;;;;6125652;23;20172;-72
2021/01/17 09:22:50;;;;;;;8.40;7.50;;;2.30;78.80;;;;;;6125821;23;20157;-72
2021/01/17 09:25:17;;;;;;;14.90;9.52;;;2.30;78.90;;;;;;6126208;23;20176;-72
2021/01/17 09:27:43;;;;;;;12.35;8.85;;;2.40;79.40;;;;;;6125273;23;20164;-73
2021/01/17 09:30:12;;;;;;;11.48;8.35;;;2.50;79.80;;;;;;6122573;23;20195;-72
2021/01/17 09:32:41;;;;;;;10.50;8.75;;;2.50;79.30;;;;;;6118010;23;20683;-72
2021/01/17 09:35:08;;;;;;;8.88;7.47;;;2.60;79.20;;;;;;6124442;23;20766;-74
2021/01/17 09:37:36;;;;;;;11.15;7.22;;;2.60;78.80;;;;;;6126268;23;20164;-76
2021/01/17 09:40:05;;;;;;;9.38;5.85;;;2.70;79.10;;;;;;6126098;23;20176;-73
2021/01/17 09:42:32;;;;;;;7.75;5.32;;;2.60;78.60;;;;;;6126370;23;20674;-74
2021/01/17 09:45:00;;;;;;;9.57;5.85;;;2.70;78.30;;;;;;6127118;23;20172;-74
2021/01/17 09:47:27;;;;;;;6.93;5.55;;;2.70;79.60;;;;;;6128020;23;20479;-74
2021/01/17 09:49:56;;;;;;;6.35;4.22;;;2.70;78.80;;;;;;6127029;23;20169;-72
2021/01/17 09:52:25;;;;;;;7.47;5.05;;;2.80;79.70;;;;;;6127440;23;20203;-74
2021/01/17 09:54:53;;;;;;;7.20;5.40;;;2.80;79.90;;;;;;6126083;23;20247;-74
2021/01/17 09:57:22;;;;;;;6.93;5.15;;;2.90;80.20;;;;;;6126688;23;20215;-74
2021/01/17 09:59:51;;;;;;;7.40;5.05;;;3.00;79.50;;;;;;6126505;23;20173;-74
2021/01/17 10:02:21;;;;;;;7.68;5.35;;;3.00;79.40;;;;;;6126965;23;20168;-74
2021/01/17 10:04:48;;;;;;;9.18;4.60;;;3.10;79.50;;;;;;6127082;23;20218;-74
2021/01/17 10:07:17;;;;;;;6.22;4.47;;;3.10;79.20;;;;;;6126723;23;20188;-74
2021/01/17 10:09:48;;;;;;;6.22;4.70;;;3.20;78.80;;;;;;6126977;23;20204;-73
2021/01/17 10:12:20;;;;;;;8.50;4.88;;;3.20;77.90;;;;;;6127267;23;20252;-73
2021/01/17 10:14:47;;;;;;;9.18;6.07;;;3.20;78.60;;;;;;6126822;23;20240;-74
2021/01/17 10:17:14;;;;;;;10.10;7.55;;;3.20;78.90;;;;;;6127311;23;20172;-77
2021/01/17 10:19:42;;;;;;;13.45;8.65;;;3.30;78.80;;;;;;6126908;23;20192;-74
2021/01/17 10:22:14;;;;;;;7.88;5.05;;;3.40;78.50;;;;;;6122289;23;20168;-73
2021/01/17 10:24:43;;;;;;;6.80;4.35;;;3.40;78.10;;;;;;6125901;23;20223;-74
2021/01/17 10:27:12;;;;;;;5.35;4.22;;;3.40;77.80;;;;;;6126541;23;20169;-74
2021/01/17 10:29:40;;;;;;;39.85;24.45;;;3.40;77.40;;;;;;6126061;23;20247;-73
2021/01/17 10:32:09;;;;;;;30.42;19.35;;;3.40;78.20;;;;;;6125953;23;20203;-73
2021/01/17 10:34:40;;;;;;;17.48;11.65;;;3.40;78.00;;;;;;6126412;23;20172;-74
2021/01/17 10:37:09;;;;;;;5.85;4.80;;;3.40;78.10;;;;;;6125795;23;20152;-74
2021/01/17 10:39:38;;;;;;;7.20;4.50;;;3.50;77.80;;;;;;6126030;23;20651;-73
2021/01/17 10:42:07;;;;;;;7.25;3.72;;;3.50;78.50;;;;;;6125774;23;20215;-74
2021/01/17 10:44:41;;;;;;;6.32;4.57;;;3.40;78.00;;;;;;6126225;23;20168;-74
2021/01/17 10:47:20;;;;;;;9.60;7.47;;;3.50;79.20;;;;;;6126096;23;20756;-74
2021/01/17 10:49:49;;;;;;;14.00;11.10;;;3.50;78.50;;;;;;6126405;23;20190;-74
2021/01/17 10:52:24;;;;;;;14.18;8.95;;;3.50;78.80;;;;;;6125309;23;20200;-73
2021/01/17 10:54:53;;;;;;;7.20;6.50;;;3.50;78.20;;;;;;6125334;23;20157;-74
2021/01/17 10:57:24;;;;;;;7.78;4.40;;;3.60;78.40;;;;;;6125842;23;20164;-73
2021/01/17 10:59:54;;;;;;;5.65;3.95;;;3.70;78.40;;;;;;6125952;23;20172;-74
2021/01/17 11:02:24;;;;;;;5.47;4.63;;;3.80;78.20;;;;;;6126197;23;20513;-74
2021/01/17 11:04:51;;;;;;;7.25;5.75;;;3.80;78.10;;;;;;6126223;23;20164;-74
2021/01/17 11:07:28;;;;;;;6.93;4.82;;;3.90;77.90;;;;;;6121932;23;20179;-74
2021/01/17 11:09:54;;;;;;;6.72;5.18;;;3.90;76.70;;;;;;6125727;23;20167;-73
2021/01/17 11:12:42;;;;;;;8.55;6.07;;;4.00;77.10;;;;;;6125978;23;20282;-73
2021/01/17 11:15:21;;;;;;;7.95;5.00;;;3.90;76.50;;;;;;6118559;23;20168;-73
2021/01/17 11:17:56;;;;;;;7.20;6.05;;;3.90;77.10;;;;;;6126448;23;20160;-74
2021/01/17 11:20:28;;;;;;;10.23;8.18;;;4.00;77.50;;;;;;6125781;23;20235;-73
2021/01/17 11:23:01;;;;;;;9.43;5.68;;;4.00;77.20;;;;;;6125998;23;20474;-74
2021/01/17 11:25:28;;;;;;;8.77;5.63;;;4.00;76.90;;;;;;6125685;23;20204;-73
2021/01/17 11:27:57;;;;;;;9.73;6.47;;;3.90;76.20;;;;;;6125474;23;20164;-73
2021/01/17 11:30:26;;;;;;;7.25;5.45;;;4.00;76.80;;;;;;6125139;23;20192;-73
2021/01/17 11:33:06;;;;;;;9.45;6.22;;;4.10;76.90;;;;;;6125724;23;20616;-73
2021/01/17 11:35:32;;;;;;;11.00;7.07;;;4.10;76.70;;;;;;6126487;23;20526;-74
2021/01/17 11:37:59;;;;;;;9.23;6.47;;;4.10;77.70;;;;;;6118766;23;20172;-74
2021/01/17 11:40:25;;;;;;;9.55;6.40;;;4.00;76.60;;;;;;6118116;23;20624;-73
2021/01/17 11:43:03;;;;;;;6.75;5.50;;;4.10;76.90;;;;;;6123431;23;20179;-74
2021/01/17 11:45:30;;;;;;;6.72;5.38;;;4.00;76.00;;;;;;6124887;23;20239;-73
2021/01/17 11:47:58;;;;;;;6.50;5.13;;;4.00;76.00;;;;;;6125566;23;20168;-73
2021/01/17 11:50:26;;;;;;;9.60;6.40;;;4.00;76.60;;;;;;6125765;23;20170;-73
2021/01/17 11:52:56;;;;;;;7.88;6.28;;;4.00;76.70;;;;;;6114380;23;20499;-73
2021/01/17 11:55:23;;;;;;;11.15;8.75;;;4.00;76.90;;;;;;6125482;23;20505;-73
2021/01/17 11:57:51;;;;;;;12.43;9.98;;;4.00;76.70;;;;;;6124662;23;20164;-78
2021/01/17 12:00:18;;;;;;;15.48;9.95;;;4.00;76.60;;;;;;6126539;23;20600;-74
2021/01/17 12:02:48;;;;;;;15.95;10.63;;;4.00;76.50;;;;;;6126471;23;20172;-69
2021/01/17 12:05:17;;;;;;;20.58;11.73;;;4.00;76.80;;;;;;6126525;23;20164;-69
2021/01/17 12:07:57;;;;;;;12.70;10.80;;;4.00;76.90;;;;;;6126465;23;20484;-69
2021/01/17 12:10:24;;;;;;;11.45;8.50;;;4.10;76.30;;;;;;6126023;23;20186;-69
2021/01/17 12:12:50;;;;;;;8.90;7.15;;;4.00;76.50;;;;;;6126274;23;20192;-69
2021/01/17 12:15:17;;;;;;;8.90;6.43;;;4.10;77.00;;;;;;6126125;23;20168;-69
2021/01/17 12:17:44;;;;;;;8.38;6.00;;;4.00;75.90;;;;;;6126207;23;20171;-70
2021/01/17 12:20:11;;;;;;;6.90;5.28;;;4.00;76.20;;;;;;6126238;23;20227;-69
2021/01/17 12:22:38;;;;;;;8.63;5.95;;;3.90;76.60;;;;;;6122415;23;20172;-70
2021/01/17 12:25:06;;;;;;;5.82;5.05;;;3.90;76.40;;;;;;6119752;23;20176;-69
2021/01/17 12:27:32;;;;;;;7.32;5.05;;;3.80;76.60;;;;;;6119353;23;20169;-71
2021/01/17 12:29:59;;;;;;;6.72;5.35;;;3.80;76.60;;;;;;6122426;23;20190;-69
2021/01/17 12:32:25;;;;;;;6.55;4.72;;;3.70;76.90;;;;;;6124541;23;20227;-69
2021/01/17 12:34:52;;;;;;;6.45;5.70;;;3.70;77.10;;;;;;6125136;23;20168;-69
2021/01/17 12:37:18;;;;;;;6.82;5.13;;;3.60;77.30;;;;;;6124407;23;20207;-69
2021/01/17 12:39:46;;;;;;;9.60;6.18;;;3.60;77.30;;;;;;6124742;23;20496;-72
2021/01/17 12:42:12;;;;;;;8.43;6.00;;;3.50;77.70;;;;;;6124339;23;20165;-68
2021/01/17 12:44:39;;;;;;;6.38;5.22;;;3.40;78.10;;;;;;6125134;23;20173;-68
2021/01/17 12:47:05;;;;;;;6.72;4.75;;;3.40;78.50;;;;;;6124489;23;20199;-69
2021/01/17 12:49:32;;;;;;;6.47;5.15;;;3.40;78.20;;;;;;6126062;23;20661;-68
2021/01/17 12:51:58;;;;;;;7.30;5.57;;;3.40;78.70;;;;;;6123969;23;20192;-67
2021/01/17 12:54:25;;;;;;;8.50;4.95;;;3.30;78.50;;;;;;6124332;23;20638;-70
2021/01/17 12:56:56;;;;;;;8.30;5.50;;;3.30;78.80;;;;;;6125024;23;20192;-70
2021/01/17 12:59:22;;;;;;;8.05;4.95;;;3.30;78.80;;;;;;6124617;23;20243;-70
2021/01/17 13:01:49;;;;;;;7.25;5.82;;;3.20;79.20;;;;;;6124948;23;20219;-69
2021/01/17 13:04:15;;;;;;;6.13;4.75;;;3.20;79.40;;;;;;6124426;23;20184;-69